Time;durP1;ratioP1;P1;durP2;ratioP2;P2;SDS_P1;SDS_P2;PMS_P1;PMS_P2;Temp;Humidity;BMP_temperature;BMP_pressure;BME280_temperature;BME280_humidity;BME280_pressure;Samples;Min_cycle;Max_cycle;Signal;HPM_P1;HPM_P2
2022/09/27 00:02:24;;;;;;;2.17;1.98;;;10.10;99.90;;;;;;4407376;27;10000610;-78
2022/09/27 00:04:50;;;;;;;2.13;1.92;;;10.00;99.90;;;;;;5118710;27;20023;-78
2022/09/27 00:07:16;;;;;;;2.15;1.95;;;10.00;99.90;;;;;;5121809;27;20039;-78
2022/09/27 00:09:41;;;;;;;2.92;2.03;;;10.10;99.90;;;;;;5124113;27;20034;-78
2022/09/27 00:12:09;;;;;;;1.85;1.75;;;10.10;99.90;;;;;;5116433;28;20038;-78
2022/09/27 00:14:34;;;;;;;4.28;1.77;;;10.00;99.90;;;;;;5129167;27;20018;-78
2022/09/27 00:17:00;;;;;;;3.75;2.00;;;10.00;99.90;;;;;;5116831;27;20089;-79
2022/09/27 00:19:25;;;;;;;3.33;2.10;;;10.00;99.90;;;;;;5119463;27;20110;-79
2022/09/27 00:21:51;;;;;;;3.92;2.20;;;10.00;99.90;;;;;;5130716;27;20099;-79
2022/09/27 00:24:20;;;;;;;2.28;2.08;;;10.00;99.90;;;;;;5117754;27;20096;-80
2022/09/27 00:26:47;;;;;;;2.58;2.15;;;10.00;99.90;;;;;;5126796;27;20038;-80
2022/09/27 00:29:14;;;;;;;2.30;2.10;;;10.00;99.90;;;;;;5129828;27;20032;-80
2022/09/27 00:31:39;;;;;;;4.00;2.20;;;10.10;99.90;;;;;;5108439;28;20391;-80
2022/09/27 00:34:06;;;;;;;3.33;2.30;;;10.10;99.90;;;;;;5139460;27;20027;-79
2022/09/27 00:36:33;;;;;;;2.28;2.10;;;10.00;99.90;;;;;;5133661;27;20110;-79
2022/09/27 00:39:00;;;;;;;2.50;2.30;;;10.10;99.90;;;;;;5132667;27;20157;-79
2022/09/27 00:41:32;;;;;;;2.50;2.30;;;10.10;99.90;;;;;;5128598;27;21369;-79
2022/09/27 00:44:00;;;;;;;2.25;2.05;;;10.10;99.90;;;;;;5118456;27;20122;-80
2022/09/27 00:46:43;;;;;;;2.28;2.05;;;10.10;99.90;;;;;;5125004;27;20035;-79
2022/09/27 00:49:22;;;;;;;3.35;2.15;;;10.10;99.90;;;;;;5118551;27;20070;-80
2022/09/27 00:51:56;;;;;;;3.47;2.58;;;10.20;99.90;;;;;;5123339;27;20531;-79
2022/09/27 00:54:24;;;;;;;;;;;10.10;99.90;;;;;;5121765;27;20382;-78
2022/09/27 00:56:50;;;;;;;2.83;2.50;;;10.10;99.90;;;;;;5129909;27;20227;-79
2022/09/27 00:59:27;;;;;;;3.75;2.85;;;10.20;99.90;;;;;;5126779;27;20031;-79
2022/09/27 01:01:53;;;;;;;3.22;2.85;;;10.10;99.90;;;;;;5130632;27;20055;-79
2022/09/27 01:04:23;;;;;;;3.30;2.80;;;10.10;99.90;;;;;;5115389;27;20123;-79
2022/09/27 01:06:49;;;;;;;3.10;2.80;;;10.10;99.90;;;;;;5111416;27;20475;-77
2022/09/27 01:09:15;;;;;;;4.43;3.45;;;10.20;99.90;;;;;;5117506;27;20035;-78
2022/09/27 01:11:56;;;;;;;3.60;3.30;;;10.10;99.90;;;;;;5125788;27;20019;-78
2022/09/27 01:14:56;;;;;;;5.63;3.30;;;10.10;99.90;;;;;;5118974;27;20034;-78
2022/09/27 01:17:37;;;;;;;3.10;2.80;;;10.00;99.90;;;;;;5118496;27;20049;-79
2022/09/27 01:20:21;;;;;;;5.30;3.33;;;10.00;99.90;;;;;;5121975;27;20058;-79
2022/09/27 01:22:53;;;;;;;3.88;3.20;;;10.10;99.90;;;;;;5117292;27;20538;-78
2022/09/27 01:25:56;;;;;;;5.25;3.40;;;10.00;99.90;;;;;;5138749;27;20018;-78
2022/09/27 01:28:36;;;;;;;3.07;2.80;;;10.10;99.90;;;;;;5118590;27;20046;-79
2022/09/27 01:31:25;;;;;;;4.40;3.40;;;10.10;99.90;;;;;;5127884;27;20087;-79
2022/09/27 01:34:09;;;;;;;4.70;3.50;;;10.10;99.90;;;;;;5114951;27;20030;-79
2022/09/27 01:36:34;;;;;;;3.63;3.17;;;10.10;99.90;;;;;;5136541;27;20052;-79
2022/09/27 01:39:24;;;;;;;4.32;3.30;;;10.00;99.90;;;;;;5127113;27;20065;-79
2022/09/27 01:42:21;;;;;;;4.18;3.15;;;10.10;99.90;;;;;;5120678;27;20035;-79
2022/09/27 01:44:57;;;;;;;5.07;2.97;;;10.10;99.90;;;;;;5110301;27;20035;-79
2022/09/27 01:47:38;;;;;;;7.88;3.70;;;10.20;99.90;;;;;;5120371;27;20114;-79
2022/09/27 01:50:09;;;;;;;3.67;3.33;;;10.10;99.90;;;;;;5104676;27;20039;-80
2022/09/27 01:52:58;;;;;;;3.83;3.38;;;10.10;99.90;;;;;;5104721;28;20024;-80
2022/09/27 01:55:31;;;;;;;6.57;3.97;;;10.10;99.90;;;;;;5089264;28;20027;-80
2022/09/27 01:58:07;;;;;;;9.07;4.25;;;10.10;99.90;;;;;;5107665;27;20027;-80
2022/09/27 02:00:35;;;;;;;5.68;4.00;;;10.10;99.90;;;;;;5093041;27;20032;-80
2022/09/27 02:03:15;;;;;;;4.95;3.70;;;10.10;99.90;;;;;;5104769;27;20050;-80
2022/09/27 02:05:52;;;;;;;4.07;3.65;;;10.10;99.90;;;;;;5112671;27;20020;-79
2022/09/27 02:08:30;;;;;;;5.10;3.40;;;10.10;99.90;;;;;;5101577;27;20036;-79
2022/09/27 02:11:00;;;;;;;6.35;3.95;;;10.10;99.90;;;;;;5093606;27;20032;-79
2022/09/27 02:13:57;;;;;;;7.05;3.60;;;10.10;99.90;;;;;;5095627;27;20425;-78
2022/09/27 02:16:49;;;;;;;5.00;3.80;;;10.10;99.90;;;;;;5103440;27;20438;-79
2022/09/27 02:19:29;;;;;;;4.97;3.30;;;10.00;99.90;;;;;;5111953;27;20035;-79
2022/09/27 02:22:18;;;;;;;7.22;3.10;;;10.00;99.90;;;;;;5101701;27;20039;-79
2022/09/27 02:24:51;;;;;;;5.45;3.53;;;10.00;99.90;;;;;;5097589;28;20039;-79
2022/09/27 02:27:33;;;;;;;5.22;3.47;;;10.10;99.90;;;;;;5107903;27;20035;-78
2022/09/27 02:30:10;;;;;;;5.85;3.20;;;10.00;99.90;;;;;;5103119;27;20390;-78
2022/09/27 02:32:36;;;;;;;5.72;3.25;;;10.00;99.90;;;;;;5115623;27;20110;-79
2022/09/27 02:35:12;;;;;;;9.30;3.42;;;10.00;99.90;;;;;;5109788;27;20042;-79
2022/09/27 02:37:38;;;;;;;5.60;3.58;;;10.00;99.90;;;;;;5117771;27;20394;-79
2022/09/27 02:40:04;;;;;;;7.03;3.42;;;10.00;99.90;;;;;;5116371;27;20031;-79
2022/09/27 02:42:31;;;;;;;7.00;4.05;;;10.00;99.90;;;;;;5091963;28;20043;-80
2022/09/27 02:44:57;;;;;;;7.72;3.80;;;9.90;99.90;;;;;;5089813;28;20036;-79
2022/09/27 02:47:56;;;;;;;6.55;3.92;;;10.00;99.90;;;;;;5085693;28;20026;-80
2022/09/27 02:50:25;;;;;;;6.50;4.32;;;9.90;99.90;;;;;;5090631;28;20032;-80
2022/09/27 02:53:08;;;;;;;6.47;4.15;;;9.90;99.90;;;;;;5104648;28;20038;-81
2022/09/27 02:56:00;;;;;;;6.88;3.95;;;10.00;99.90;;;;;;5094367;28;20023;-81
2022/09/27 02:58:45;;;;;;;7.13;3.90;;;10.00;99.90;;;;;;5094798;28;20107;-80
2022/09/27 03:01:40;;;;;;;7.35;4.07;;;10.00;99.90;;;;;;5091476;28;20051;-80
2022/09/27 03:04:22;;;;;;;14.45;4.55;;;9.90;99.90;;;;;;5089193;27;20032;-81
2022/09/27 03:06:50;;;;;;;6.35;3.90;;;10.00;99.90;;;;;;5084861;28;22159;-80
2022/09/27 03:09:21;;;;;;;6.57;3.90;;;9.90;99.90;;;;;;5088115;28;20431;-79
2022/09/27 03:11:47;;;;;;;6.57;3.65;;;9.90;99.90;;;;;;5102126;28;20020;-80
2022/09/27 03:14:13;;;;;;;15.02;4.03;;;9.90;99.90;;;;;;5090905;28;20070;-80
2022/09/27 03:16:39;;;;;;;7.47;3.70;;;10.00;99.90;;;;;;5085430;28;20486;-80
2022/09/27 03:19:04;;;;;;;7.68;4.45;;;10.00;99.90;;;;;;5085627;28;20403;-80
2022/09/27 03:21:30;;;;;;;8.27;4.55;;;10.10;99.90;;;;;;5096803;28;20036;-81
2022/09/27 03:23:55;;;;;;;7.63;3.88;;;9.90;99.90;;;;;;5094042;28;20022;-80
2022/09/27 03:26:21;;;;;;;9.15;4.00;;;9.90;99.90;;;;;;5099113;28;20057;-80
2022/09/27 03:28:47;;;;;;;7.30;3.40;;;10.00;99.90;;;;;;5100224;28;20065;-81
2022/09/27 03:31:13;;;;;;;7.22;3.75;;;9.90;99.90;;;;;;5097346;28;20126;-80
2022/09/27 03:33:39;;;;;;;8.93;3.90;;;10.00;99.90;;;;;;5093758;28;20512;-80
2022/09/27 03:36:05;;;;;;;8.52;3.80;;;9.90;99.90;;;;;;5091494;28;20104;-79
2022/09/27 03:38:31;;;;;;;7.82;4.05;;;9.90;99.90;;;;;;5088943;28;20092;-80
2022/09/27 03:40:57;;;;;;;8.52;3.70;;;9.90;99.90;;;;;;5088409;28;20110;-80
2022/09/27 03:43:23;;;;;;;5.78;3.13;;;10.00;99.90;;;;;;5102416;28;20082;-80
2022/09/27 03:45:49;;;;;;;5.18;3.10;;;10.00;99.90;;;;;;5100496;27;20034;-80
2022/09/27 03:48:15;;;;;;;8.70;3.13;;;9.90;99.90;;;;;;5100628;27;20024;-80
2022/09/27 03:50:40;;;;;;;4.93;2.90;;;9.90;99.90;;;;;;5106535;27;20108;-80
2022/09/27 03:53:06;;;;;;;5.38;2.83;;;10.00;99.90;;;;;;5093152;27;20043;-80
2022/09/27 03:55:31;;;;;;;3.30;2.30;;;9.90;99.90;;;;;;5114367;27;20386;-80
2022/09/27 03:57:57;;;;;;;3.33;2.28;;;9.90;99.90;;;;;;5106955;27;20036;-80
2022/09/27 04:00:23;;;;;;;3.35;2.20;;;9.90;99.90;;;;;;5101717;27;20024;-80
2022/09/27 04:02:49;;;;;;;3.25;2.20;;;9.90;99.90;;;;;;5110045;27;20023;-80
2022/09/27 04:05:15;;;;;;;4.70;2.40;;;9.90;99.90;;;;;;5099886;27;20031;-80
2022/09/27 04:07:48;;;;;;;3.42;2.33;;;9.90;99.90;;;;;;5103398;27;20031;-80
2022/09/27 04:10:14;;;;;;;1.95;1.85;;;9.80;99.90;;;;;;5101083;28;20026;-80
2022/09/27 04:12:40;;;;;;;4.53;2.25;;;9.80;99.90;;;;;;5099155;28;20177;-81
2022/09/27 04:15:07;;;;;;;3.42;2.00;;;9.80;99.90;;;;;;5099450;28;20539;-80
2022/09/27 04:17:33;;;;;;;3.97;2.28;;;9.80;99.90;;;;;;5096650;28;20300;-80
2022/09/27 04:20:02;;;;;;;4.43;2.00;;;9.90;99.90;;;;;;5112428;28;20039;-80
2022/09/27 04:22:28;;;;;;;2.88;1.60;;;9.80;99.90;;;;;;5113471;28;20026;-80
2022/09/27 04:24:53;;;;;;;2.15;1.60;;;9.80;99.90;;;;;;5089448;28;20028;-79
2022/09/27 04:27:19;;;;;;;2.60;1.40;;;9.80;99.90;;;;;;5106560;28;20118;-80
2022/09/27 04:29:44;;;;;;;3.75;1.58;;;9.80;99.90;;;;;;5092809;28;20027;-80
2022/09/27 04:32:11;;;;;;;1.75;1.40;;;9.70;99.90;;;;;;5087898;28;20466;-80
2022/09/27 04:37:21;;;;;;;5.38;1.33;;;9.70;99.90;;;;;;5098514;28;20050;-79
2022/09/27 04:39:48;;;;;;;5.35;1.75;;;9.80;99.90;;;;;;5110694;28;20516;-80
2022/09/27 04:42:14;;;;;;;2.38;1.10;;;9.80;99.90;;;;;;5105638;27;20055;-80
2022/09/27 04:44:40;;;;;;;1.90;1.40;;;9.70;99.90;;;;;;5118672;27;20026;-80
2022/09/27 04:47:05;;;;;;;2.22;1.25;;;9.70;99.90;;;;;;5131918;27;20033;-79
2022/09/27 04:49:31;;;;;;;1.63;0.88;;;9.70;99.90;;;;;;5119925;27;20030;-80
2022/09/27 04:51:57;;;;;;;3.85;1.30;;;9.70;99.90;;;;;;5117577;27;20045;-80
2022/09/27 04:54:22;;;;;;;1.83;1.10;;;9.70;99.90;;;;;;5138315;27;20034;-80
2022/09/27 04:56:48;;;;;;;2.90;1.15;;;9.70;99.90;;;;;;5127911;27;20026;-80
2022/09/27 04:59:14;;;;;;;3.28;1.13;;;9.70;99.90;;;;;;5126949;27;20026;-80
2022/09/27 05:01:40;;;;;;;2.25;1.55;;;9.70;99.90;;;;;;5111139;27;20016;-80
2022/09/27 05:04:05;;;;;;;4.78;1.15;;;9.70;99.90;;;;;;5128691;27;20106;-79
2022/09/27 05:06:31;;;;;;;2.53;1.50;;;9.80;99.90;;;;;;5133113;27;20034;-80
2022/09/27 05:08:57;;;;;;;2.65;1.52;;;9.70;99.90;;;;;;5138249;27;20228;-79
2022/09/27 05:11:23;;;;;;;1.77;1.52;;;9.70;99.90;;;;;;5143023;27;20035;-80
2022/09/27 05:13:49;;;;;;;3.05;1.63;;;9.70;99.90;;;;;;5132479;27;20046;-80
2022/09/27 05:16:15;;;;;;;6.45;1.55;;;9.60;99.90;;;;;;5126418;27;20070;-80
2022/09/27 05:18:41;;;;;;;2.47;1.50;;;9.60;99.90;;;;;;5138002;27;20097;-80
2022/09/27 05:21:07;;;;;;;2.42;1.58;;;9.60;99.90;;;;;;5121550;27;20561;-80
2022/09/27 05:23:32;;;;;;;3.60;1.50;;;9.60;99.90;;;;;;5114446;27;20153;-80
2022/09/27 05:26:03;;;;;;;1.95;1.38;;;9.60;99.90;;;;;;5120997;27;20062;-80
2022/09/27 05:28:30;;;;;;;3.38;1.52;;;9.60;99.90;;;;;;5130536;27;20029;-80
2022/09/27 05:30:55;;;;;;;4.25;1.88;;;9.60;99.90;;;;;;5121553;27;20478;-78
2022/09/27 05:33:21;;;;;;;5.95;2.53;;;9.60;99.90;;;;;;5123162;27;20024;-77
2022/09/27 05:35:54;;;;;;;5.00;2.58;;;9.60;99.90;;;;;;5138065;27;20023;-77
2022/09/27 05:38:21;;;;;;;4.55;2.28;;;9.60;99.90;;;;;;4770662;27;10000107;-79
2022/09/27 05:40:49;;;;;;;2.90;1.52;;;9.60;99.90;;;;;;5136194;27;20027;-80
2022/09/27 05:43:14;;;;;;;1.40;1.20;;;9.60;99.90;;;;;;5142116;27;20030;-79
2022/09/27 05:45:41;;;;;;;2.70;1.40;;;9.60;99.90;;;;;;5143504;27;20042;-83
2022/09/27 05:48:07;;;;;;;2.25;1.40;;;9.50;99.90;;;;;;5128053;27;20408;-80
2022/09/27 05:50:33;;;;;;;1.70;1.50;;;9.60;99.90;;;;;;5112955;27;20046;-78
2022/09/27 05:52:59;;;;;;;2.88;1.40;;;9.60;99.90;;;;;;5111440;27;20024;-78
2022/09/27 05:55:24;;;;;;;3.08;2.42;;;9.60;99.90;;;;;;5125912;27;20023;-77
2022/09/27 05:57:56;;;;;;;5.53;3.10;;;9.60;99.90;;;;;;5134030;27;20035;-81
2022/09/27 06:00:22;;;;;;;3.35;2.58;;;9.60;99.90;;;;;;5131732;27;20035;-80
2022/09/27 06:02:57;;;;;;;3.05;1.60;;;9.60;99.90;;;;;;5125676;27;20035;-78
2022/09/27 06:05:24;;;;;;;3.67;2.60;;;9.60;99.90;;;;;;5124262;27;20023;-81
2022/09/27 06:07:50;;;;;;;6.25;3.08;;;9.60;99.90;;;;;;5120303;27;20114;-79
2022/09/27 06:10:17;;;;;;;8.35;6.82;;;9.60;99.90;;;;;;5131765;27;20054;-78
2022/09/27 06:12:43;;;;;;;6.22;4.50;;;9.60;99.90;;;;;;5117536;27;20026;-80
2022/09/27 06:15:09;;;;;;;5.30;3.25;;;9.60;99.90;;;;;;5138399;27;20023;-73
2022/09/27 06:17:34;;;;;;;4.47;2.58;;;9.60;99.90;;;;;;5132891;27;20029;-75
2022/09/27 06:20:00;;;;;;;5.30;3.33;;;9.70;99.90;;;;;;5120422;27;20024;-79
2022/09/27 06:22:26;;;;;;;4.20;3.75;;;9.60;99.90;;;;;;5106950;28;20024;-75
2022/09/27 06:24:51;;;;;;;4.05;3.53;;;9.60;99.90;;;;;;5125186;27;20039;-75
2022/09/27 06:27:17;;;;;;;7.78;3.47;;;9.60;99.90;;;;;;5124658;27;20037;-75
2022/09/27 06:29:43;;;;;;;3.60;1.80;;;9.60;99.90;;;;;;5129951;27;20043;-77
2022/09/27 06:32:09;;;;;;;1.88;1.40;;;9.60;99.90;;;;;;5132103;27;20596;-76
2022/09/27 06:34:35;;;;;;;2.13;1.02;;;9.70;99.90;;;;;;5144336;27;20014;-75
2022/09/27 06:37:01;;;;;;;2.42;1.20;;;9.60;99.90;;;;;;5129299;27;20035;-74
2022/09/27 06:39:27;;;;;;;2.80;1.30;;;9.60;99.90;;;;;;5122995;27;20202;-76
2022/09/27 06:41:57;;;;;;;2.30;1.20;;;9.60;99.90;;;;;;5126222;27;20050;-77
2022/09/27 06:44:23;;;;;;;3.47;1.40;;;9.60;99.90;;;;;;5099742;27;20066;-76
2022/09/27 06:46:50;;;;;;;3.33;2.00;;;9.60;99.90;;;;;;5114824;27;20036;-77
2022/09/27 06:49:16;;;;;;;2.97;1.52;;;9.70;99.90;;;;;;5102611;27;20711;-75
2022/09/27 06:51:41;;;;;;;8.60;1.85;;;9.70;99.90;;;;;;5125394;27;20011;-76
2022/09/27 06:54:07;;;;;;;7.85;1.88;;;9.80;99.90;;;;;;5108765;27;20578;-82
2022/09/27 06:56:33;;;;;;;1.92;1.27;;;9.90;99.90;;;;;;5104293;27;20688;-81
2022/09/27 07:01:44;;;;;;;6.25;1.20;;;10.00;99.90;;;;;;5119863;27;20480;-78
2022/09/27 07:04:10;;;;;;;3.13;1.10;;;10.00;99.90;;;;;;5097896;28;20823;-78
2022/09/27 07:06:36;;;;;;;1.50;1.30;;;10.10;99.90;;;;;;5105005;27;20032;-78
2022/09/27 07:09:02;;;;;;;1.30;1.20;;;10.20;99.90;;;;;;5111462;27;20070;-79
2022/09/27 07:11:28;;;;;;;5.57;2.67;;;10.20;99.90;;;;;;5098200;27;20020;-79
2022/09/27 07:13:55;;;;;;;1.55;0.93;;;10.30;99.90;;;;;;5100194;27;20027;-80
2022/09/27 07:16:21;;;;;;;1.25;0.90;;;10.30;99.90;;;;;;5099241;28;20028;-78
2022/09/27 07:18:48;;;;;;;2.03;1.23;;;10.30;99.90;;;;;;5085942;28;20446;-80
2022/09/27 07:21:15;;;;;;;2.03;1.30;;;10.20;99.90;;;;;;5097818;28;20035;-84
2022/09/27 07:23:41;;;;;;;2.05;1.20;;;10.20;99.90;;;;;;5115753;27;20023;-79
2022/09/27 07:26:09;;;;;;;2.70;1.50;;;10.20;99.90;;;;;;5108695;27;20697;-81
2022/09/27 07:28:35;;;;;;;3.75;2.30;;;10.10;99.90;;;;;;5097584;28;20484;-75
2022/09/27 07:31:02;;;;;;;1.83;1.63;;;10.10;99.90;;;;;;5091342;27;20039;-77
2022/09/27 07:33:29;;;;;;;1.20;1.10;;;10.20;99.90;;;;;;5116362;27;20139;-81
2022/09/27 07:35:54;;;;;;;3.85;1.58;;;10.20;99.90;;;;;;5105237;27;20027;-81
2022/09/27 07:38:20;;;;;;;5.03;1.60;;;10.30;99.90;;;;;;5112355;27;20057;-81
2022/09/27 07:40:46;;;;;;;4.40;2.00;;;10.30;99.90;;;;;;5107874;27;20024;-81
2022/09/27 07:43:11;;;;;;;3.40;2.70;;;10.50;99.90;;;;;;5116645;27;20078;-80
2022/09/27 07:45:38;;;;;;;2.17;1.80;;;10.60;99.90;;;;;;5122856;27;20022;-80
2022/09/27 07:48:05;;;;;;;3.88;2.60;;;10.70;99.90;;;;;;5119192;27;20023;-81
2022/09/27 07:50:31;;;;;;;2.15;1.67;;;10.70;99.90;;;;;;5118882;27;20043;-77
2022/09/27 07:52:56;;;;;;;4.40;3.75;;;11.00;99.90;;;;;;5119580;27;20027;-77
2022/09/27 07:55:23;;;;;;;4.63;3.30;;;11.10;99.90;;;;;;5120276;27;20015;-78
2022/09/27 07:57:48;;;;;;;8.45;5.03;;;11.10;99.90;;;;;;5123204;27;20058;-79
2022/09/27 08:00:17;;;;;;;4.57;2.05;;;11.20;99.90;;;;;;5146022;27;20301;-77
2022/09/27 08:02:43;;;;;;;7.85;5.18;;;11.20;99.90;;;;;;5143139;27;20027;-77
2022/09/27 08:05:10;;;;;;;4.43;3.00;;;11.20;99.90;;;;;;5125060;27;20147;-77
2022/09/27 08:07:37;;;;;;;3.88;1.80;;;11.20;99.90;;;;;;5121110;27;20031;-76
2022/09/27 08:10:03;;;;;;;7.15;2.20;;;11.00;99.90;;;;;;5128681;27;20037;-75
2022/09/27 08:12:29;;;;;;;3.33;2.00;;;11.00;99.90;;;;;;5115997;28;20077;-75
2022/09/27 08:14:57;;;;;;;2.55;1.85;;;11.00;99.90;;;;;;5114033;27;20024;-77
2022/09/27 08:17:23;;;;;;;2.97;2.28;;;10.80;99.90;;;;;;5122681;28;20019;-77
2022/09/27 08:19:48;;;;;;;7.30;2.60;;;10.90;99.90;;;;;;5107439;28;20028;-76
2022/09/27 08:22:15;;;;;;;3.38;2.50;;;11.00;99.90;;;;;;5112819;28;20724;-79
2022/09/27 08:24:40;;;;;;;7.47;4.47;;;11.00;99.90;;;;;;5125203;27;20032;-78
2022/09/27 08:27:07;;;;;;;5.13;4.18;;;;;;;;;;5135051;27;20485;-76
2022/09/27 08:29:34;;;;;;;9.23;4.18;;;;;;;;;;5114733;28;20021;-77
2022/09/27 08:32:00;;;;;;;6.25;4.07;;;11.50;99.90;;;;;;5132909;27;20025;-78
2022/09/27 08:34:28;;;;;;;6.30;3.85;;;11.70;99.90;;;;;;5119915;27;20020;-75
2022/09/27 08:36:54;;;;;;;6.75;2.50;;;;;;;;;;5120153;27;20028;-76
2022/09/27 08:39:20;;;;;;;3.78;2.80;;;;;;;;;;5109661;27;20032;-78
2022/09/27 08:41:56;;;;;;;5.32;2.30;;;;;;;;;;5116776;27;20067;-77
2022/09/27 08:44:28;;;;;;;5.15;3.00;;;;;;;;;;5117086;27;20113;-78
2022/09/27 08:47:03;;;;;;;5.93;2.90;;;;;;;;;;5111874;27;20660;-78
2022/09/27 08:49:48;;;;;;;7.57;3.33;;;;;;;;;;5129942;27;20497;-83
2022/09/27 08:52:20;;;;;;;4.60;3.28;;;;;;;;;;5127263;27;20024;-79
2022/09/27 08:54:46;;;;;;;7.78;2.90;;;;;;;;;;5126528;27;20057;-80
2022/09/27 08:57:13;;;;;;;4.97;2.65;;;12.30;99.90;;;;;;5126859;27;20026;-83
2022/09/27 09:00:07;;;;;;;6.25;3.10;;;12.40;99.90;;;;;;5120759;27;20521;-82
2022/09/27 09:02:34;;;;;;;5.43;2.83;;;12.20;99.90;;;;;;5116010;28;20031;-83
2022/09/27 09:05:24;;;;;;;6.22;3.50;;;12.40;99.90;;;;;;5119736;28;20027;-83
2022/09/27 09:08:14;;;;;;;4.55;2.80;;;12.70;99.90;;;;;;5127697;27;20070;-83
2022/09/27 09:14:20;;;;;;;4.95;2.20;;;12.90;99.90;;;;;;5117433;27;20041;-83
2022/09/27 09:16:46;;;;;;;;;;;12.80;99.90;;;;;;5123635;27;20031;-87
2022/09/27 09:19:25;;;;;;;6.32;2.90;;;12.80;99.90;;;;;;5117012;27;19960;-84
2022/09/27 09:22:10;;;;;;;4.88;2.60;;;12.70;99.90;;;;;;5126363;27;20027;-84
2022/09/27 09:24:47;;;;;;;4.82;2.63;;;12.50;99.90;;;;;;5123450;28;20030;-82
2022/09/27 09:27:40;;;;;;;5.22;2.47;;;12.40;99.90;;;;;;5118607;27;20482;-84
2022/09/27 09:30:20;;;;;;;3.83;1.92;;;12.20;99.90;;;;;;5102518;27;20379;-82
2022/09/27 09:33:14;;;;;;;5.05;2.20;;;12.00;99.90;;;;;;5133693;27;20794;-81
2022/09/27 09:35:53;;;;;;;5.82;2.28;;;11.90;99.90;;;;;;5118521;27;20114;-86
2022/09/27 09:38:34;;;;;;;4.72;2.42;;;11.80;99.90;;;;;;5124379;27;20075;-86
2022/09/27 09:41:14;;;;;;;5.75;2.90;;;11.80;99.90;;;;;;5121083;27;20534;-82
2022/09/27 09:44:09;;;;;;;5.13;2.55;;;11.80;99.90;;;;;;5087612;28;20040;-86
2022/09/27 09:46:40;;;;;;;6.25;3.10;;;11.80;99.90;;;;;;5086933;28;20943;-84
2022/09/27 09:49:30;;;;;;;4.75;2.80;;;11.80;99.90;;;;;;5084863;28;20024;-83
2022/09/27 09:52:09;;;;;;;8.05;2.85;;;11.90;99.90;;;;;;5091195;28;20020;-85
2022/09/27 09:54:41;;;;;;;7.07;4.07;;;11.90;99.90;;;;;;5097895;28;20480;-86
2022/09/27 09:57:15;;;;;;;4.80;2.10;;;12.10;99.90;;;;;;5090631;28;20063;-82
2022/09/27 09:59:54;;;;;;;7.15;2.58;;;12.20;99.90;;;;;;5085271;28;20395;-85
2022/09/27 10:02:37;;;;;;;3.75;1.70;;;12.20;99.90;;;;;;5086636;28;20618;-84
2022/09/27 10:05:04;;;;;;;;;;;12.20;99.90;;;;;;5089046;28;20048;-83
2022/09/27 10:07:33;;;;;;;5.95;1.52;;;12.20;99.90;;;;;;5088167;28;19936;-82
2022/09/27 10:10:03;;;;;;;3.58;1.30;;;12.30;99.90;;;;;;5087647;27;20028;-85
2022/09/27 10:12:28;;;;;;;2.42;1.50;;;12.30;99.90;;;;;;5101824;28;20369;-82
2022/09/27 10:14:59;;;;;;;4.28;1.20;;;12.30;99.90;;;;;;5115727;27;20019;-82
2022/09/27 10:17:31;;;;;;;6.93;1.25;;;12.20;99.90;;;;;;5112722;27;20678;-82
2022/09/27 10:19:58;;;;;;;4.43;1.50;;;12.10;99.90;;;;;;5107250;28;20032;-82
2022/09/27 10:22:27;;;;;;;2.70;0.85;;;;;;;;;;5092069;28;20052;-78
2022/09/27 10:24:56;;;;;;;3.22;1.90;;;;;;;;;;5094768;28;20028;-80
2022/09/27 10:27:24;;;;;;;9.50;5.45;;;;;;;;;;5091023;27;20043;-80
2022/09/27 10:29:56;;;;;;;3.75;1.70;;;;;;;;;;5098184;28;20028;-79
2022/09/27 10:32:26;;;;;;;1.70;0.73;;;;;;;;;;5092128;28;20047;-79
2022/09/27 10:34:52;;;;;;;3.22;1.10;;;;;;;;;;5089925;28;20571;-80
2022/09/27 10:37:20;;;;;;;1.83;0.80;;;;;;;;;;5093375;28;20019;-79
2022/09/27 10:39:48;;;;;;;2.33;1.23;;;;;;;;;;5090866;28;20042;-79
2022/09/27 10:42:21;;;;;;;2.45;1.10;;;;;;;;;;5094570;28;20051;-80
2022/09/27 10:44:47;;;;;;;4.03;1.30;;;;;;;;;;5106883;27;20579;-80
2022/09/27 10:47:18;;;;;;;2.97;0.88;;;;;;;;;;5115029;27;20442;-80
2022/09/27 10:49:44;;;;;;;4.85;1.27;;;;;;;;;;5102126;27;20078;-83
2022/09/27 10:52:23;;;;;;;6.57;2.20;;;;;;;;;;5107157;27;20035;-81
2022/09/27 10:54:57;;;;;;;3.80;2.20;;;;;;;;;;5107127;27;20414;-84
2022/09/27 10:57:25;;;;;;;4.97;3.10;;;;;;;;;;5113616;27;20028;-84
2022/09/27 10:59:58;;;;;;;3.65;1.75;;;;;;;;;;5106269;27;20078;-82
2022/09/27 11:02:32;;;;;;;3.67;1.48;;;13.30;99.90;;;;;;5112961;27;20038;-81
2022/09/27 11:05:26;;;;;;;3.17;1.75;;;13.10;99.90;;;;;;5108456;27;20031;-80
2022/09/27 11:07:55;;;;;;;2.22;1.52;;;13.10;99.90;;;;;;5099000;27;20650;-80
2022/09/27 11:10:33;;;;;;;3.03;1.85;;;13.20;99.90;;;;;;5113672;27;20032;-78
2022/09/27 11:13:19;;;;;;;1.67;1.02;;;13.40;99.90;;;;;;5109309;27;20027;-78
2022/09/27 11:16:03;;;;;;;2.60;1.02;;;13.40;99.90;;;;;;5098595;27;20027;-79
2022/09/27 11:18:34;;;;;;;3.22;1.10;;;13.20;99.90;;;;;;5109824;27;20034;-78
2022/09/27 11:21:25;;;;;;;2.72;1.10;;;13.10;99.90;;;;;;5099905;27;20036;-77
2022/09/27 11:24:10;;;;;;;2.13;0.93;;;13.00;99.90;;;;;;5103641;27;20019;-80
2022/09/27 11:27:09;;;;;;;1.70;1.10;;;12.90;99.90;;;;;;5109396;27;20633;-76
2022/09/27 11:29:50;;;;;;;0.88;0.60;;;13.00;99.90;;;;;;5112407;27;20038;-76
2022/09/27 11:32:34;;;;;;;2.40;1.00;;;13.00;99.90;;;;;;5105463;27;20073;-76
2022/09/27 11:35:18;;;;;;;1.13;0.90;;;12.90;99.90;;;;;;5111580;27;20422;-76
2022/09/27 11:38:22;;;;;;;3.30;1.35;;;12.80;99.90;;;;;;5087327;27;20020;-75
2022/09/27 11:41:00;;;;;;;1.13;1.02;;;12.80;99.90;;;;;;5105572;27;21203;-76
2022/09/27 11:43:38;;;;;;;2.53;1.25;;;12.60;99.90;;;;;;5106573;27;20435;-76
2022/09/27 11:46:16;;;;;;;2.05;1.10;;;12.50;99.90;;;;;;5101513;27;20036;-77
2022/09/27 11:49:17;;;;;;;2.15;1.40;;;12.50;99.90;;;;;;5097873;27;20119;-80
2022/09/27 11:52:11;;;;;;;1.83;1.30;;;12.50;99.90;;;;;;5105032;27;20031;-80
2022/09/27 11:54:57;;;;;;;2.08;1.20;;;12.50;99.90;;;;;;5111110;27;20049;-81
2022/09/27 11:57:30;;;;;;;2.60;1.48;;;12.60;99.90;;;;;;5115652;27;20041;-81
2022/09/27 12:00:15;;;;;;;1.42;1.33;;;12.60;99.90;;;;;;5097944;27;20280;-81
2022/09/27 12:03:06;;;;;;;2.78;1.45;;;12.70;99.90;;;;;;5121814;27;20039;-81
2022/09/27 12:05:46;;;;;;;1.95;1.30;;;12.70;99.90;;;;;;5103748;28;20019;-81
2022/09/27 12:08:17;;;;;;;1.30;1.20;;;12.70;99.90;;;;;;5088455;28;20066;-81
2022/09/27 12:10:48;;;;;;;3.95;1.30;;;12.70;99.90;;;;;;5101061;28;20039;-81
2022/09/27 12:13:19;;;;;;;3.03;1.40;;;12.80;99.90;;;;;;5103208;28;20028;-84
2022/09/27 12:15:47;;;;;;;2.20;1.60;;;12.80;99.90;;;;;;5082363;28;20046;-85
2022/09/27 12:18:26;;;;;;;2.55;1.60;;;12.90;99.90;;;;;;5082129;28;20125;-85
2022/09/27 12:20:53;;;;;;;1.80;1.70;;;12.90;99.90;;;;;;5087929;28;20028;-85
2022/09/27 12:23:33;;;;;;;4.55;2.20;;;13.00;99.90;;;;;;5094526;28;20547;-85
2022/09/27 12:26:05;;;;;;;4.95;3.92;;;13.10;99.90;;;;;;5100173;28;20028;-84
2022/09/27 12:28:54;;;;;;;4.05;3.17;;;13.20;99.90;;;;;;5120814;28;20035;-85
2022/09/27 12:31:28;;;;;;;3.92;3.15;;;13.20;99.90;;;;;;5124451;28;20399;-85
2022/09/27 12:34:21;;;;;;;2.80;2.40;;;13.10;99.90;;;;;;5096046;28;20024;-85
2022/09/27 12:36:49;;;;;;;1.98;1.70;;;;;;;;;;5093504;28;20020;-82
2022/09/27 12:39:26;;;;;;;3.00;2.50;;;;;;;;;;5107428;28;20019;-80
2022/09/27 12:42:00;;;;;;;5.15;2.85;;;;;;;;;;5108516;27;20049;-76
2022/09/27 12:44:26;;;;;;;4.03;2.60;;;;;;;;;;5097395;28;20073;-79
2022/09/27 12:47:07;;;;;;;5.15;2.70;;;;;;;;;;5092869;28;20028;-78
2022/09/27 12:49:39;;;;;;;3.58;2.70;;;12.90;99.90;;;;;;5094114;28;20145;-79
2022/09/27 12:52:10;;;;;;;4.20;3.43;;;12.70;99.90;;;;;;5114000;28;20027;-79
2022/09/27 12:55:03;;;;;;;5.00;3.92;;;12.70;99.90;;;;;;5114582;28;20317;-79
2022/09/27 12:58:06;;;;;;;10.50;5.20;;;12.60;99.90;;;;;;5093989;28;20020;-75
2022/09/27 13:00:46;;;;;;;6.30;5.03;;;12.60;99.90;;;;;;5110555;28;20023;-75
2022/09/27 13:03:42;;;;;;;5.40;4.90;;;12.50;99.90;;;;;;5115072;27;20053;-85
2022/09/27 13:06:30;;;;;;;5.28;4.10;;;12.40;99.90;;;;;;5095192;27;20525;-78
2022/09/27 13:09:38;;;;;;;6.13;4.90;;;12.30;99.90;;;;;;5104929;27;20027;-83
2022/09/27 13:12:20;;;;;;;5.18;4.65;;;12.10;99.90;;;;;;5110862;27;20023;-82
2022/09/27 13:15:00;;;;;;;6.85;3.90;;;12.10;99.90;;;;;;5103783;27;20481;-85
2022/09/27 13:17:41;;;;;;;3.80;3.50;;;12.00;99.90;;;;;;5108390;27;20277;-85
2022/09/27 13:20:34;;;;;;;3.70;3.40;;;12.00;99.90;;;;;;5108261;27;20059;-87
2022/09/27 13:23:15;;;;;;;4.32;3.67;;;12.00;99.90;;;;;;5119689;27;20114;-77
2022/09/27 13:26:02;;;;;;;6.00;5.40;;;12.10;99.90;;;;;;5115944;27;20770;-79
2022/09/27 13:28:28;;;;;;;4.85;3.88;;;12.10;99.90;;;;;;5108328;27;20031;-78
2022/09/27 13:30:55;;;;;;;4.50;3.33;;;12.00;99.90;;;;;;5108330;27;20021;-78
2022/09/27 13:33:44;;;;;;;4.00;3.10;;;12.10;99.90;;;;;;5108704;27;20057;-76
2022/09/27 13:36:15;;;;;;;9.20;4.30;;;12.10;99.90;;;;;;5110620;27;20035;-75
2022/09/27 13:39:00;;;;;;;5.85;4.65;;;12.10;99.90;;;;;;5118169;27;20097;-75